sensor_id;sensor_type;location;lat;lon;timestamp;P1;durP1;ratioP1;P2;durP2;ratioP2
61038;SDS011;46919;45.816;3.104;2024-03-08T00:01:59;6.82;;;4.43;;
61038;SDS011;46919;45.816;3.104;2024-03-08T00:04:25;11.82;;;5.32;;
61038;SDS011;46919;45.816;3.104;2024-03-08T00:06:50;8.30;;;4.57;;
61038;SDS011;46919;45.816;3.104;2024-03-08T00:09:16;10.15;;;5.13;;
61038;SDS011;46919;45.816;3.104;2024-03-08T00:11:41;7.47;;;4.43;;
61038;SDS011;46919;45.816;3.104;2024-03-08T00:14:06;8.50;;;4.05;;
61038;SDS011;46919;45.816;3.104;2024-03-08T00:16:33;8.40;;;3.85;;
61038;SDS011;46919;45.816;3.104;2024-03-08T00:18:59;5.07;;;3.03;;
61038;SDS011;46919;45.816;3.104;2024-03-08T00:21:24;5.75;;;2.92;;
61038;SDS011;46919;45.816;3.104;2024-03-08T00:23:49;5.50;;;3.17;;
61038;SDS011;46919;45.816;3.104;2024-03-08T00:26:15;7.05;;;3.63;;
61038;SDS011;46919;45.816;3.104;2024-03-08T00:28:40;6.40;;;3.90;;
61038;SDS011;46919;45.816;3.104;2024-03-08T00:31:06;7.00;;;3.15;;
61038;SDS011;46919;45.816;3.104;2024-03-08T00:33:32;4.60;;;3.17;;
61038;SDS011;46919;45.816;3.104;2024-03-08T00:35:57;6.60;;;2.90;;
61038;SDS011;46919;45.816;3.104;2024-03-08T00:38:22;5.03;;;2.75;;
61038;SDS011;46919;45.816;3.104;2024-03-08T00:40:48;5.30;;;2.78;;
61038;SDS011;46919;45.816;3.104;2024-03-08T00:43:13;3.75;;;2.47;;
61038;SDS011;46919;45.816;3.104;2024-03-08T00:45:40;5.18;;;2.33;;
61038;SDS011;46919;45.816;3.104;2024-03-08T00:48:07;4.60;;;2.28;;
61038;SDS011;46919;45.816;3.104;2024-03-08T00:50:33;3.55;;;1.90;;
61038;SDS011;46919;45.816;3.104;2024-03-08T00:52:59;3.92;;;2.20;;
61038;SDS011;46919;45.816;3.104;2024-03-08T00:55:25;4.10;;;2.30;;
61038;SDS011;46919;45.816;3.104;2024-03-08T00:57:51;4.05;;;2.22;;
61038;SDS011;46919;45.816;3.104;2024-03-08T01:00:16;5.53;;;1.98;;
61038;SDS011;46919;45.816;3.104;2024-03-08T01:02:42;6.05;;;2.70;;
61038;SDS011;46919;45.816;3.104;2024-03-08T01:05:07;3.28;;;2.28;;
61038;SDS011;46919;45.816;3.104;2024-03-08T01:07:34;4.07;;;2.40;;
61038;SDS011;46919;45.816;3.104;2024-03-08T01:10:00;4.13;;;2.22;;
61038;SDS011;46919;45.816;3.104;2024-03-08T01:12:27;6.72;;;2.80;;
61038;SDS011;46919;45.816;3.104;2024-03-08T01:14:53;7.93;;;3.00;;
61038;SDS011;46919;45.816;3.104;2024-03-08T01:17:18;4.28;;;2.20;;
61038;SDS011;46919;45.816;3.104;2024-03-08T01:19:43;6.25;;;2.45;;
61038;SDS011;46919;45.816;3.104;2024-03-08T01:22:12;4.65;;;2.83;;
61038;SDS011;46919;45.816;3.104;2024-03-08T01:24:37;4.53;;;2.17;;
61038;SDS011;46919;45.816;3.104;2024-03-08T01:27:03;3.90;;;2.15;;
61038;SDS011;46919;45.816;3.104;2024-03-08T01:29:28;4.95;;;2.10;;
61038;SDS011;46919;45.816;3.104;2024-03-08T01:31:55;4.57;;;2.30;;
61038;SDS011;46919;45.816;3.104;2024-03-08T01:34:21;6.32;;;2.33;;
61038;SDS011;46919;45.816;3.104;2024-03-08T01:36:47;6.82;;;2.08;;
61038;SDS011;46919;45.816;3.104;2024-03-08T01:39:13;3.35;;;2.35;;
61038;SDS011;46919;45.816;3.104;2024-03-08T01:41:39;4.93;;;2.05;;
61038;SDS011;46919;45.816;3.104;2024-03-08T01:44:05;4.47;;;2.00;;
61038;SDS011;46919;45.816;3.104;2024-03-08T01:46:32;3.20;;;2.05;;
61038;SDS011;46919;45.816;3.104;2024-03-08T01:48:59;4.20;;;2.15;;
61038;SDS011;46919;45.816;3.104;2024-03-08T01:51:26;9.90;;;2.50;;
61038;SDS011;46919;45.816;3.104;2024-03-08T01:53:53;3.75;;;2.00;;
61038;SDS011;46919;45.816;3.104;2024-03-08T01:56:20;4.10;;;2.10;;
61038;SDS011;46919;45.816;3.104;2024-03-08T01:58:46;5.07;;;2.03;;
61038;SDS011;46919;45.816;3.104;2024-03-08T02:01:12;7.75;;;1.92;;
61038;SDS011;46919;45.816;3.104;2024-03-08T02:03:41;6.53;;;2.13;;
61038;SDS011;46919;45.816;3.104;2024-03-08T02:06:09;5.38;;;2.17;;
61038;SDS011;46919;45.816;3.104;2024-03-08T02:08:36;3.85;;;2.00;;
61038;SDS011;46919;45.816;3.104;2024-03-08T02:11:02;6.35;;;2.00;;
61038;SDS011;46919;45.816;3.104;2024-03-08T02:13:28;2.88;;;1.55;;
61038;SDS011;46919;45.816;3.104;2024-03-08T02:15:54;3.67;;;1.27;;
61038;SDS011;46919;45.816;3.104;2024-03-08T02:18:21;4.38;;;1.50;;
61038;SDS011;46919;45.816;3.104;2024-03-08T02:20:51;6.32;;;1.42;;
61038;SDS011;46919;45.816;3.104;2024-03-08T02:23:20;3.08;;;1.27;;
61038;SDS011;46919;45.816;3.104;2024-03-08T02:25:46;3.80;;;1.30;;
61038;SDS011;46919;45.816;3.104;2024-03-08T02:28:13;5.13;;;1.25;;
61038;SDS011;46919;45.816;3.104;2024-03-08T02:30:39;2.60;;;1.10;;
61038;SDS011;46919;45.816;3.104;2024-03-08T02:33:05;5.82;;;1.67;;
61038;SDS011;46919;45.816;3.104;2024-03-08T02:35:34;2.83;;;1.35;;
61038;SDS011;46919;45.816;3.104;2024-03-08T02:38:00;5.60;;;1.70;;
61038;SDS011;46919;45.816;3.104;2024-03-08T02:40:26;2.13;;;1.02;;
61038;SDS011;46919;45.816;3.104;2024-03-08T02:42:52;3.03;;;0.93;;
61038;SDS011;46919;45.816;3.104;2024-03-08T02:45:17;5.50;;;0.90;;
61038;SDS011;46919;45.816;3.104;2024-03-08T02:47:43;4.75;;;1.10;;
61038;SDS011;46919;45.816;3.104;2024-03-08T02:50:08;2.92;;;1.13;;
61038;SDS011;46919;45.816;3.104;2024-03-08T02:52:34;2.42;;;0.93;;
61038;SDS011;46919;45.816;3.104;2024-03-08T02:55:00;3.55;;;0.88;;
61038;SDS011;46919;45.816;3.104;2024-03-08T02:57:26;2.85;;;1.00;;
61038;SDS011;46919;45.816;3.104;2024-03-08T02:59:53;4.78;;;1.00;;
61038;SDS011;46919;45.816;3.104;2024-03-08T03:02:19;8.93;;;1.00;;
61038;SDS011;46919;45.816;3.104;2024-03-08T03:04:44;5.40;;;1.13;;
61038;SDS011;46919;45.816;3.104;2024-03-08T03:07:09;2.78;;;0.88;;
61038;SDS011;46919;45.816;3.104;2024-03-08T03:09:36;2.42;;;0.90;;
61038;SDS011;46919;45.816;3.104;2024-03-08T03:12:01;2.33;;;0.98;;
61038;SDS011;46919;45.816;3.104;2024-03-08T03:14:27;1.83;;;0.75;;
61038;SDS011;46919;45.816;3.104;2024-03-08T03:16:53;2.97;;;0.75;;
61038;SDS011;46919;45.816;3.104;2024-03-08T03:19:19;3.72;;;0.75;;
61038;SDS011;46919;45.816;3.104;2024-03-08T03:21:45;2.00;;;0.82;;
61038;SDS011;46919;45.816;3.104;2024-03-08T03:24:10;4.07;;;0.95;;
61038;SDS011;46919;45.816;3.104;2024-03-08T03:26:37;1.20;;;0.52;;
61038;SDS011;46919;45.816;3.104;2024-03-08T03:29:06;3.70;;;1.00;;
61038;SDS011;46919;45.816;3.104;2024-03-08T03:31:33;4.75;;;0.80;;
61038;SDS011;46919;45.816;3.104;2024-03-08T03:33:59;3.28;;;0.90;;
61038;SDS011;46919;45.816;3.104;2024-03-08T03:36:27;2.85;;;0.70;;
61038;SDS011;46919;45.816;3.104;2024-03-08T03:38:54;3.20;;;0.73;;
61038;SDS011;46919;45.816;3.104;2024-03-08T03:41:30;1.40;;;0.73;;
61038;SDS011;46919;45.816;3.104;2024-03-08T03:43:55;2.72;;;0.90;;
61038;SDS011;46919;45.816;3.104;2024-03-08T03:46:21;2.63;;;0.85;;
61038;SDS011;46919;45.816;3.104;2024-03-08T03:48:46;4.03;;;0.68;;
61038;SDS011;46919;45.816;3.104;2024-03-08T03:51:12;2.20;;;0.80;;
61038;SDS011;46919;45.816;3.104;2024-03-08T03:53:37;2.47;;;1.10;;
61038;SDS011;46919;45.816;3.104;2024-03-08T03:56:03;1.55;;;0.80;;
61038;SDS011;46919;45.816;3.104;2024-03-08T03:58:31;4.43;;;0.95;;
61038;SDS011;46919;45.816;3.104;2024-03-08T04:00:57;3.50;;;0.60;;
61038;SDS011;46919;45.816;3.104;2024-03-08T04:03:23;1.77;;;0.60;;
61038;SDS011;46919;45.816;3.104;2024-03-08T04:05:48;3.95;;;0.90;;
61038;SDS011;46919;45.816;3.104;2024-03-08T04:08:14;2.55;;;0.90;;
61038;SDS011;46919;45.816;3.104;2024-03-08T04:10:39;4.63;;;1.00;;
61038;SDS011;46919;45.816;3.104;2024-03-08T04:13:07;2.67;;;0.70;;
61038;SDS011;46919;45.816;3.104;2024-03-08T04:15:32;2.80;;;0.88;;
61038;SDS011;46919;45.816;3.104;2024-03-08T04:17:58;1.67;;;0.88;;
61038;SDS011;46919;45.816;3.104;2024-03-08T04:20:25;0.90;;;0.60;;
61038;SDS011;46919;45.816;3.104;2024-03-08T04:22:51;1.40;;;0.52;;
61038;SDS011;46919;45.816;3.104;2024-03-08T04:25:16;4.18;;;0.75;;
61038;SDS011;46919;45.816;3.104;2024-03-08T04:27:42;4.00;;;0.70;;
61038;SDS011;46919;45.816;3.104;2024-03-08T04:30:07;4.40;;;1.05;;
61038;SDS011;46919;45.816;3.104;2024-03-08T04:32:33;2.70;;;0.63;;
61038;SDS011;46919;45.816;3.104;2024-03-08T04:34:59;2.13;;;0.60;;
61038;SDS011;46919;45.816;3.104;2024-03-08T04:37:26;2.03;;;0.68;;
61038;SDS011;46919;45.816;3.104;2024-03-08T04:39:54;1.10;;;0.52;;
61038;SDS011;46919;45.816;3.104;2024-03-08T04:42:20;2.08;;;0.60;;
61038;SDS011;46919;45.816;3.104;2024-03-08T04:44:45;3.78;;;0.68;;
61038;SDS011;46919;45.816;3.104;2024-03-08T04:47:11;2.55;;;0.70;;
61038;SDS011;46919;45.816;3.104;2024-03-08T04:49:36;3.20;;;0.70;;
61038;SDS011;46919;45.816;3.104;2024-03-08T04:52:02;1.73;;;0.50;;
61038;SDS011;46919;45.816;3.104;2024-03-08T04:54:29;3.38;;;1.00;;
61038;SDS011;46919;45.816;3.104;2024-03-08T04:56:54;2.38;;;0.60;;
61038;SDS011;46919;45.816;3.104;2024-03-08T04:59:20;2.42;;;0.60;;
61038;SDS011;46919;45.816;3.104;2024-03-08T05:01:46;2.97;;;1.00;;
61038;SDS011;46919;45.816;3.104;2024-03-08T05:04:12;5.50;;;0.88;;
61038;SDS011;46919;45.816;3.104;2024-03-08T05:06:38;3.28;;;0.80;;
61038;SDS011;46919;45.816;3.104;2024-03-08T05:09:03;1.75;;;0.60;;
61038;SDS011;46919;45.816;3.104;2024-03-08T05:11:38;3.65;;;0.80;;
61038;SDS011;46919;45.816;3.104;2024-03-08T05:14:13;2.88;;;0.70;;
61038;SDS011;46919;45.816;3.104;2024-03-08T05:16:45;3.70;;;0.90;;
61038;SDS011;46919;45.816;3.104;2024-03-08T05:19:14;2.60;;;0.63;;
61038;SDS011;46919;45.816;3.104;2024-03-08T05:21:42;1.38;;;0.70;;
61038;SDS011;46919;45.816;3.104;2024-03-08T05:24:11;4.20;;;0.80;;
61038;SDS011;46919;45.816;3.104;2024-03-08T05:26:36;2.38;;;0.75;;
61038;SDS011;46919;45.816;3.104;2024-03-08T05:29:05;4.65;;;1.05;;
61038;SDS011;46919;45.816;3.104;2024-03-08T05:31:31;2.65;;;0.88;;
61038;SDS011;46919;45.816;3.104;2024-03-08T05:34:06;1.80;;;0.85;;
61038;SDS011;46919;45.816;3.104;2024-03-08T05:36:35;2.78;;;0.60;;
61038;SDS011;46919;45.816;3.104;2024-03-08T05:39:00;3.88;;;0.70;;
61038;SDS011;46919;45.816;3.104;2024-03-08T05:41:26;3.55;;;0.60;;
61038;SDS011;46919;45.816;3.104;2024-03-08T05:43:51;2.10;;;0.70;;
61038;SDS011;46919;45.816;3.104;2024-03-08T05:46:16;4.47;;;0.77;;
61038;SDS011;46919;45.816;3.104;2024-03-08T05:48:43;3.97;;;0.90;;
61038;SDS011;46919;45.816;3.104;2024-03-08T05:51:09;3.90;;;0.90;;
61038;SDS011;46919;45.816;3.104;2024-03-08T05:53:34;5.43;;;0.90;;
61038;SDS011;46919;45.816;3.104;2024-03-08T05:55:59;2.35;;;0.60;;
61038;SDS011;46919;45.816;3.104;2024-03-08T05:58:27;2.28;;;0.70;;
61038;SDS011;46919;45.816;3.104;2024-03-08T06:00:55;3.95;;;0.80;;
61038;SDS011;46919;45.816;3.104;2024-03-08T06:03:21;3.88;;;0.63;;
61038;SDS011;46919;45.816;3.104;2024-03-08T06:05:47;2.55;;;0.70;;
61038;SDS011;46919;45.816;3.104;2024-03-08T06:08:15;2.65;;;0.60;;
61038;SDS011;46919;45.816;3.104;2024-03-08T06:10:41;1.25;;;0.70;;
61038;SDS011;46919;45.816;3.104;2024-03-08T06:13:07;2.75;;;0.90;;
61038;SDS011;46919;45.816;3.104;2024-03-08T06:15:32;4.28;;;0.70;;
61038;SDS011;46919;45.816;3.104;2024-03-08T06:17:57;1.85;;;0.60;;
61038;SDS011;46919;45.816;3.104;2024-03-08T06:20:23;2.40;;;0.70;;
61038;SDS011;46919;45.816;3.104;2024-03-08T06:22:51;1.92;;;0.70;;
61038;SDS011;46919;45.816;3.104;2024-03-08T06:25:17;4.75;;;1.20;;
61038;SDS011;46919;45.816;3.104;2024-03-08T06:27:43;4.40;;;0.90;;
61038;SDS011;46919;45.816;3.104;2024-03-08T06:30:09;2.83;;;0.70;;
61038;SDS011;46919;45.816;3.104;2024-03-08T06:32:36;2.03;;;0.60;;
61038;SDS011;46919;45.816;3.104;2024-03-08T06:35:02;3.08;;;0.85;;
61038;SDS011;46919;45.816;3.104;2024-03-08T06:37:31;2.92;;;0.80;;
61038;SDS011;46919;45.816;3.104;2024-03-08T06:39:57;0.65;;;0.50;;
61038;SDS011;46919;45.816;3.104;2024-03-08T06:42:23;3.38;;;0.80;;
61038;SDS011;46919;45.816;3.104;2024-03-08T06:44:48;2.28;;;0.80;;
61038;SDS011;46919;45.816;3.104;2024-03-08T06:47:17;1.58;;;0.65;;
61038;SDS011;46919;45.816;3.104;2024-03-08T06:49:43;1.98;;;0.70;;
61038;SDS011;46919;45.816;3.104;2024-03-08T06:52:09;1.80;;;0.70;;
61038;SDS011;46919;45.816;3.104;2024-03-08T06:54:35;2.33;;;0.77;;
61038;SDS011;46919;45.816;3.104;2024-03-08T06:57:04;2.22;;;0.70;;
61038;SDS011;46919;45.816;3.104;2024-03-08T06:59:30;3.65;;;0.80;;
61038;SDS011;46919;45.816;3.104;2024-03-08T07:02:00;3.10;;;0.85;;
61038;SDS011;46919;45.816;3.104;2024-03-08T07:04:26;2.17;;;0.57;;
61038;SDS011;46919;45.816;3.104;2024-03-08T07:06:58;2.45;;;0.70;;
61038;SDS011;46919;45.816;3.104;2024-03-08T07:09:26;2.10;;;0.63;;
61038;SDS011;46919;45.816;3.104;2024-03-08T07:11:51;2.13;;;0.70;;
61038;SDS011;46919;45.816;3.104;2024-03-08T07:14:21;1.58;;;0.60;;
61038;SDS011;46919;45.816;3.104;2024-03-08T07:16:49;1.98;;;0.70;;
61038;SDS011;46919;45.816;3.104;2024-03-08T07:19:16;3.22;;;0.68;;
61038;SDS011;46919;45.816;3.104;2024-03-08T07:21:42;1.52;;;0.68;;
61038;SDS011;46919;45.816;3.104;2024-03-08T07:24:09;2.05;;;0.75;;
61038;SDS011;46919;45.816;3.104;2024-03-08T07:26:52;1.75;;;0.63;;
61038;SDS011;46919;45.816;3.104;2024-03-08T07:29:18;1.98;;;0.70;;
61038;SDS011;46919;45.816;3.104;2024-03-08T07:31:43;1.55;;;0.60;;
61038;SDS011;46919;45.816;3.104;2024-03-08T07:34:27;3.00;;;0.60;;
61038;SDS011;46919;45.816;3.104;2024-03-08T07:36:56;1.70;;;0.68;;
61038;SDS011;46919;45.816;3.104;2024-03-08T07:39:22;1.33;;;0.60;;
61038;SDS011;46919;45.816;3.104;2024-03-08T07:41:48;2.00;;;0.68;;
61038;SDS011;46919;45.816;3.104;2024-03-08T07:44:15;0.98;;;0.50;;
61038;SDS011;46919;45.816;3.104;2024-03-08T07:46:40;0.80;;;0.60;;
61038;SDS011;46919;45.816;3.104;2024-03-08T07:49:07;2.15;;;0.68;;
61038;SDS011;46919;45.816;3.104;2024-03-08T07:51:35;2.83;;;0.50;;
61038;SDS011;46919;45.816;3.104;2024-03-08T07:54:02;0.77;;;0.30;;
61038;SDS011;46919;45.816;3.104;2024-03-08T07:56:29;2.13;;;0.65;;
61038;SDS011;46919;45.816;3.104;2024-03-08T07:58:55;3.13;;;0.57;;
61038;SDS011;46919;45.816;3.104;2024-03-08T08:01:20;2.88;;;0.60;;
61038;SDS011;46919;45.816;3.104;2024-03-08T08:03:46;0.90;;;0.40;;
61038;SDS011;46919;45.816;3.104;2024-03-08T08:06:14;1.88;;;0.45;;
61038;SDS011;46919;45.816;3.104;2024-03-08T08:08:44;3.28;;;0.80;;
61038;SDS011;46919;45.816;3.104;2024-03-08T08:11:10;0.80;;;0.50;;
61038;SDS011;46919;45.816;3.104;2024-03-08T08:13:40;1.48;;;0.50;;
61038;SDS011;46919;45.816;3.104;2024-03-08T08:16:08;2.58;;;0.35;;
61038;SDS011;46919;45.816;3.104;2024-03-08T08:18:33;2.33;;;0.60;;
61038;SDS011;46919;45.816;3.104;2024-03-08T08:21:00;0.95;;;0.40;;
61038;SDS011;46919;45.816;3.104;2024-03-08T08:23:26;1.15;;;0.60;;
61038;SDS011;46919;45.816;3.104;2024-03-08T08:25:51;1.98;;;0.40;;
61038;SDS011;46919;45.816;3.104;2024-03-08T08:28:17;1.05;;;0.45;;
61038;SDS011;46919;45.816;3.104;2024-03-08T08:30:44;2.85;;;0.43;;
61038;SDS011;46919;45.816;3.104;2024-03-08T08:33:09;1.52;;;0.50;;
61038;SDS011;46919;45.816;3.104;2024-03-08T08:35:36;1.58;;;0.60;;
61038;SDS011;46919;45.816;3.104;2024-03-08T08:38:02;1.10;;;0.60;;
61038;SDS011;46919;45.816;3.104;2024-03-08T08:40:28;0.65;;;0.38;;
61038;SDS011;46919;45.816;3.104;2024-03-08T08:42:56;1.58;;;0.52;;
61038;SDS011;46919;45.816;3.104;2024-03-08T08:45:24;2.72;;;0.50;;
61038;SDS011;46919;45.816;3.104;2024-03-08T08:47:50;3.42;;;0.52;;
61038;SDS011;46919;45.816;3.104;2024-03-08T08:50:16;4.38;;;0.50;;
61038;SDS011;46919;45.816;3.104;2024-03-08T08:52:48;1.50;;;0.45;;
61038;SDS011;46919;45.816;3.104;2024-03-08T08:55:13;0.60;;;0.35;;
61038;SDS011;46919;45.816;3.104;2024-03-08T08:57:42;2.63;;;0.40;;
61038;SDS011;46919;45.816;3.104;2024-03-08T09:00:07;1.98;;;0.47;;
61038;SDS011;46919;45.816;3.104;2024-03-08T09:02:35;1.40;;;0.40;;
61038;SDS011;46919;45.816;3.104;2024-03-08T09:05:02;1.67;;;0.40;;
61038;SDS011;46919;45.816;3.104;2024-03-08T09:07:28;1.85;;;0.60;;
61038;SDS011;46919;45.816;3.104;2024-03-08T09:09:53;1.45;;;0.40;;
61038;SDS011;46919;45.816;3.104;2024-03-08T09:12:23;1.13;;;0.60;;
61038;SDS011;46919;45.816;3.104;2024-03-08T09:14:49;1.80;;;0.50;;
61038;SDS011;46919;45.816;3.104;2024-03-08T09:17:15;3.67;;;0.60;;
61038;SDS011;46919;45.816;3.104;2024-03-08T09:19:46;4.75;;;0.75;;
61038;SDS011;46919;45.816;3.104;2024-03-08T09:22:12;2.70;;;0.50;;
61038;SDS011;46919;45.816;3.104;2024-03-08T09:24:38;1.67;;;0.60;;
61038;SDS011;46919;45.816;3.104;2024-03-08T09:27:04;1.33;;;0.70;;
61038;SDS011;46919;45.816;3.104;2024-03-08T09:29:29;3.25;;;0.70;;
61038;SDS011;46919;45.816;3.104;2024-03-08T09:31:55;1.35;;;0.50;;
61038;SDS011;46919;45.816;3.104;2024-03-08T09:34:20;4.30;;;0.68;;
61038;SDS011;46919;45.816;3.104;2024-03-08T09:36:46;2.78;;;0.50;;
61038;SDS011;46919;45.816;3.104;2024-03-08T09:39:11;1.50;;;0.63;;
61038;SDS011;46919;45.816;3.104;2024-03-08T09:41:42;1.88;;;0.80;;
61038;SDS011;46919;45.816;3.104;2024-03-08T09:44:08;3.05;;;0.60;;
61038;SDS011;46919;45.816;3.104;2024-03-08T09:46:34;2.10;;;0.80;;
61038;SDS011;46919;45.816;3.104;2024-03-08T09:49:00;4.45;;;0.65;;
61038;SDS011;46919;45.816;3.104;2024-03-08T09:51:29;2.33;;;0.80;;
61038;SDS011;46919;45.816;3.104;2024-03-08T09:53:58;2.78;;;0.65;;
61038;SDS011;46919;45.816;3.104;2024-03-08T09:56:23;4.10;;;0.60;;
61038;SDS011;46919;45.816;3.104;2024-03-08T09:58:50;2.08;;;0.65;;
61038;SDS011;46919;45.816;3.104;2024-03-08T10:01:30;3.95;;;0.63;;
61038;SDS011;46919;45.816;3.104;2024-03-08T10:03:56;1.20;;;0.60;;
61038;SDS011;46919;45.816;3.104;2024-03-08T10:06:23;4.57;;;0.47;;
61038;SDS011;46919;45.816;3.104;2024-03-08T10:08:49;3.78;;;0.90;;
61038;SDS011;46919;45.816;3.104;2024-03-08T10:11:17;2.10;;;0.75;;
61038;SDS011;46919;45.816;3.104;2024-03-08T10:13:44;1.83;;;0.50;;
61038;SDS011;46919;45.816;3.104;2024-03-08T10:16:11;2.45;;;0.68;;
61038;SDS011;46919;45.816;3.104;2024-03-08T10:18:37;1.35;;;0.65;;
61038;SDS011;46919;45.816;3.104;2024-03-08T10:21:03;2.53;;;0.73;;
61038;SDS011;46919;45.816;3.104;2024-03-08T10:23:31;1.23;;;0.38;;
61038;SDS011;46919;45.816;3.104;2024-03-08T10:26:00;0.65;;;0.60;;
61038;SDS011;46919;45.816;3.104;2024-03-08T10:28:39;2.55;;;0.73;;
61038;SDS011;46919;45.816;3.104;2024-03-08T10:31:05;2.03;;;0.82;;
61038;SDS011;46919;45.816;3.104;2024-03-08T10:33:31;3.53;;;0.50;;
61038;SDS011;46919;45.816;3.104;2024-03-08T10:35:58;1.50;;;0.60;;
61038;SDS011;46919;45.816;3.104;2024-03-08T10:38:24;3.28;;;0.70;;
61038;SDS011;46919;45.816;3.104;2024-03-08T10:40:52;3.10;;;0.60;;
61038;SDS011;46919;45.816;3.104;2024-03-08T10:43:22;1.17;;;0.60;;
61038;SDS011;46919;45.816;3.104;2024-03-08T10:45:59;2.67;;;0.70;;
61038;SDS011;46919;45.816;3.104;2024-03-08T10:51:14;1.52;;;0.55;;
61038;SDS011;46919;45.816;3.104;2024-03-08T10:53:40;1.83;;;0.50;;
61038;SDS011;46919;45.816;3.104;2024-03-08T10:56:06;1.45;;;0.60;;
61038;SDS011;46919;45.816;3.104;2024-03-08T10:58:34;3.95;;;0.90;;
61038;SDS011;46919;45.816;3.104;2024-03-08T11:01:01;3.60;;;1.00;;
61038;SDS011;46919;45.816;3.104;2024-03-08T11:08:40;4.00;;;0.73;;
61038;SDS011;46919;45.816;3.104;2024-03-08T11:11:06;2.35;;;0.60;;
61038;SDS011;46919;45.816;3.104;2024-03-08T11:18:53;2.38;;;0.52;;
61038;SDS011;46919;45.816;3.104;2024-03-08T11:21:19;1.17;;;0.30;;
61038;SDS011;46919;45.816;3.104;2024-03-08T11:23:58;1.70;;;0.50;;
61038;SDS011;46919;45.816;3.104;2024-03-08T11:26:30;4.40;;;0.80;;
61038;SDS011;46919;45.816;3.104;2024-03-08T11:29:31;1.67;;;0.47;;
61038;SDS011;46919;45.816;3.104;2024-03-08T11:31:50;3.58;;;0.32;;
61038;SDS011;46919;45.816;3.104;2024-03-08T11:34:15;0.88;;;0.40;;
61038;SDS011;46919;45.816;3.104;2024-03-08T11:36:41;3.92;;;0.60;;
61038;SDS011;46919;45.816;3.104;2024-03-08T11:39:07;1.20;;;0.70;;
61038;SDS011;46919;45.816;3.104;2024-03-08T11:41:39;1.63;;;0.57;;
61038;SDS011;46919;45.816;3.104;2024-03-08T11:44:06;1.00;;;0.32;;
61038;SDS011;46919;45.816;3.104;2024-03-08T11:46:34;3.78;;;0.40;;
61038;SDS011;46919;45.816;3.104;2024-03-08T11:49:00;0.70;;;0.40;;
61038;SDS011;46919;45.816;3.104;2024-03-08T11:51:26;1.63;;;0.50;;
61038;SDS011;46919;45.816;3.104;2024-03-08T11:53:52;2.83;;;0.30;;
61038;SDS011;46919;45.816;3.104;2024-03-08T11:56:17;3.80;;;0.40;;
61038;SDS011;46919;45.816;3.104;2024-03-08T11:58:55;2.95;;;0.22;;
61038;SDS011;46919;45.816;3.104;2024-03-08T12:01:22;2.90;;;0.50;;
61038;SDS011;46919;45.816;3.104;2024-03-08T12:03:55;0.55;;;0.30;;
61038;SDS011;46919;45.816;3.104;2024-03-08T12:06:25;5.30;;;3.05;;
61038;SDS011;46919;45.816;3.104;2024-03-08T12:08:52;0.77;;;0.30;;
61038;SDS011;46919;45.816;3.104;2024-03-08T12:11:18;1.48;;;0.40;;
61038;SDS011;46919;45.816;3.104;2024-03-08T12:13:48;3.20;;;0.40;;
61038;SDS011;46919;45.816;3.104;2024-03-08T12:16:16;1.73;;;0.40;;
61038;SDS011;46919;45.816;3.104;2024-03-08T12:18:46;2.83;;;1.80;;
61038;SDS011;46919;45.816;3.104;2024-03-08T12:21:13;2.53;;;1.42;;
61038;SDS011;46919;45.816;3.104;2024-03-08T12:23:42;4.80;;;2.95;;
61038;SDS011;46919;45.816;3.104;2024-03-08T12:26:13;3.38;;;1.35;;
61038;SDS011;46919;45.816;3.104;2024-03-08T12:28:41;1.63;;;0.90;;
61038;SDS011;46919;45.816;3.104;2024-03-08T12:31:08;1.73;;;0.63;;
61038;SDS011;46919;45.816;3.104;2024-03-08T12:33:52;1.83;;;0.88;;
61038;SDS011;46919;45.816;3.104;2024-03-08T12:36:20;0.85;;;0.40;;
61038;SDS011;46919;45.816;3.104;2024-03-08T12:38:46;2.35;;;0.60;;
61038;SDS011;46919;45.816;3.104;2024-03-08T12:41:17;1.80;;;0.28;;
61038;SDS011;46919;45.816;3.104;2024-03-08T12:43:44;1.20;;;0.50;;
61038;SDS011;46919;45.816;3.104;2024-03-08T12:46:15;1.42;;;0.40;;
61038;SDS011;46919;45.816;3.104;2024-03-08T12:48:40;0.98;;;0.25;;
61038;SDS011;46919;45.816;3.104;2024-03-08T12:51:06;0.60;;;0.30;;
61038;SDS011;46919;45.816;3.104;2024-03-08T12:53:32;3.03;;;0.40;;
61038;SDS011;46919;45.816;3.104;2024-03-08T12:55:58;0.55;;;0.30;;
61038;SDS011;46919;45.816;3.104;2024-03-08T12:58:24;0.40;;;0.30;;
61038;SDS011;46919;45.816;3.104;2024-03-08T13:00:50;0.68;;;0.40;;
61038;SDS011;46919;45.816;3.104;2024-03-08T13:03:16;2.13;;;0.40;;
61038;SDS011;46919;45.816;3.104;2024-03-08T13:05:42;0.80;;;0.40;;
61038;SDS011;46919;45.816;3.104;2024-03-08T13:08:08;1.60;;;0.40;;
61038;SDS011;46919;45.816;3.104;2024-03-08T13:10:41;1.70;;;0.68;;
61038;SDS011;46919;45.816;3.104;2024-03-08T13:13:12;1.63;;;0.40;;
61038;SDS011;46919;45.816;3.104;2024-03-08T13:15:40;4.65;;;0.63;;
61038;SDS011;46919;45.816;3.104;2024-03-08T13:18:05;0.98;;;0.30;;
61038;SDS011;46919;45.816;3.104;2024-03-08T13:20:33;1.00;;;0.30;;
61038;SDS011;46919;45.816;3.104;2024-03-08T13:23:02;1.23;;;0.43;;
61038;SDS011;46919;45.816;3.104;2024-03-08T13:25:28;1.27;;;0.60;;
61038;SDS011;46919;45.816;3.104;2024-03-08T13:27:53;0.50;;;0.30;;
61038;SDS011;46919;45.816;3.104;2024-03-08T13:30:21;0.50;;;0.30;;
61038;SDS011;46919;45.816;3.104;2024-03-08T13:32:51;0.30;;;0.20;;
61038;SDS011;46919;45.816;3.104;2024-03-08T13:35:17;1.20;;;0.50;;
61038;SDS011;46919;45.816;3.104;2024-03-08T13:37:49;0.60;;;0.40;;
61038;SDS011;46919;45.816;3.104;2024-03-08T13:40:16;0.70;;;0.40;;
61038;SDS011;46919;45.816;3.104;2024-03-08T13:42:43;0.40;;;0.30;;
61038;SDS011;46919;45.816;3.104;2024-03-08T13:45:09;0.98;;;0.40;;
61038;SDS011;46919;45.816;3.104;2024-03-08T13:47:39;1.50;;;0.38;;
61038;SDS011;46919;45.816;3.104;2024-03-08T13:50:08;0.50;;;0.30;;
61038;SDS011;46919;45.816;3.104;2024-03-08T13:52:38;0.43;;;0.20;;
61038;SDS011;46919;45.816;3.104;2024-03-08T13:55:04;0.82;;;0.30;;
61038;SDS011;46919;45.816;3.104;2024-03-08T13:57:31;0.82;;;0.20;;
61038;SDS011;46919;45.816;3.104;2024-03-08T13:59:57;4.97;;;0.63;;
61038;SDS011;46919;45.816;3.104;2024-03-08T14:02:22;0.55;;;0.20;;
61038;SDS011;46919;45.816;3.104;2024-03-08T14:04:52;0.70;;;0.30;;
61038;SDS011;46919;45.816;3.104;2024-03-08T14:07:19;0.28;;;0.15;;
61038;SDS011;46919;45.816;3.104;2024-03-08T14:09:45;1.85;;;0.80;;
61038;SDS011;46919;45.816;3.104;2024-03-08T14:12:10;1.48;;;0.40;;
61038;SDS011;46919;45.816;3.104;2024-03-08T14:14:35;0.32;;;0.20;;
61038;SDS011;46919;45.816;3.104;2024-03-08T14:17:01;2.25;;;0.32;;
61038;SDS011;46919;45.816;3.104;2024-03-08T14:19:28;3.15;;;0.73;;
61038;SDS011;46919;45.816;3.104;2024-03-08T14:21:55;0.30;;;0.30;;
61038;SDS011;46919;45.816;3.104;2024-03-08T14:24:21;0.85;;;0.80;;
61038;SDS011;46919;45.816;3.104;2024-03-08T14:26:47;1.42;;;0.20;;
61038;SDS011;46919;45.816;3.104;2024-03-08T14:29:14;1.65;;;0.20;;
61038;SDS011;46919;45.816;3.104;2024-03-08T14:31:39;1.40;;;1.30;;
61038;SDS011;46919;45.816;3.104;2024-03-08T14:34:06;0.68;;;0.20;;
61038;SDS011;46919;45.816;3.104;2024-03-08T14:36:32;1.02;;;0.90;;
61038;SDS011;46919;45.816;3.104;2024-03-08T14:38:57;0.68;;;0.30;;
61038;SDS011;46919;45.816;3.104;2024-03-08T14:41:23;0.70;;;0.70;;
61038;SDS011;46919;45.816;3.104;2024-03-08T14:43:48;0.32;;;0.32;;
61038;SDS011;46919;45.816;3.104;2024-03-08T14:46:14;0.98;;;0.50;;
61038;SDS011;46919;45.816;3.104;2024-03-08T14:48:54;0.80;;;0.25;;
61038;SDS011;46919;45.816;3.104;2024-03-08T14:51:21;1.55;;;0.20;;
61038;SDS011;46919;45.816;3.104;2024-03-08T14:53:51;2.00;;;0.10;;
61038;SDS011;46919;45.816;3.104;2024-03-08T14:56:17;0.73;;;0.20;;
61038;SDS011;46919;45.816;3.104;2024-03-08T14:58:43;0.17;;;0.10;;
61038;SDS011;46919;45.816;3.104;2024-03-08T15:01:12;0.10;;;0.10;;